Time;durP1;ratioP1;P1;durP2;ratioP2;P2;SDS_P1;SDS_P2;PMS_P1;PMS_P2;Temp;Humidity;BMP_temperature;BMP_pressure;BME280_temperature;BME280_humidity;BME280_pressure;Samples;Min_cycle;Max_cycle;Signal;HPM_P1;HPM_P2
2023/03/24 00:01:45;;;;;;;4.43;2.27;;;;;;;18.31;59.25;99320.09;5070337;28;20200;-63
2023/03/24 00:04:11;;;;;;;7.20;2.50;;;;;;;18.31;59.31;99314.38;5049996;28;20188;-64
2023/03/24 00:06:37;;;;;;;5.40;2.40;;;;;;;18.33;59.18;99314.84;5090403;28;20668;-64
2023/03/24 00:09:03;;;;;;;11.77;2.53;;;;;;;18.33;59.19;99303.41;5072306;28;20185;-63
2023/03/24 00:11:28;;;;;;;5.83;2.83;;;;;;;18.33;59.14;99299.72;5052892;28;20473;-63
2023/03/24 00:13:57;;;;;;;7.20;2.30;;;;;;;18.33;59.31;99297.72;5049983;28;20191;-63
2023/03/24 00:16:23;;;;;;;5.63;2.37;;;;;;;18.33;59.33;99303.41;5052320;28;20211;-63
2023/03/24 00:18:51;;;;;;;4.17;2.20;;;;;;;18.33;59.49;99294.84;5049880;28;21175;-64
2023/03/24 00:21:17;;;;;;;7.80;1.87;;;;;;;18.34;58.81;99296.47;5032149;28;20434;-63
2023/03/24 00:23:42;;;;;;;5.97;2.63;;;;;;;18.34;59.40;99292.78;5049800;28;20519;-64
2023/03/24 00:26:13;;;;;;;5.33;2.33;;;;;;;18.34;59.23;99289.94;5060922;28;20186;-63
2023/03/24 00:28:41;;;;;;;3.90;2.10;;;;;;;18.31;59.35;99280.09;5069273;28;20209;-63
2023/03/24 00:31:07;;;;;;;6.37;2.73;;;;;;;18.33;59.22;99282.59;5063235;28;20466;-63
2023/03/24 00:33:34;;;;;;;8.77;2.10;;;;;;;18.34;59.17;99273.63;5049648;28;20803;-63
2023/03/24 00:36:00;;;;;;;14.90;2.70;;;;;;;18.35;59.32;99265.84;5031689;28;20433;-64
2023/03/24 00:38:25;;;;;;;5.17;2.30;;;;;;;18.34;59.08;99261.34;5052000;28;20449;-63
2023/03/24 00:40:51;;;;;;;4.40;2.20;;;;;;;18.33;59.37;99254.03;5049442;28;20425;-63
2023/03/24 00:43:17;;;;;;;4.70;2.63;;;;;;;18.34;59.37;99250.75;5049406;28;20179;-63
2023/03/24 00:45:45;;;;;;;3.73;2.20;;;;;;;18.32;59.11;99247.47;5052156;28;20187;-63
2023/03/24 00:48:14;;;;;;;4.87;2.20;;;;;;;18.33;59.33;99239.72;5050273;28;20231;-63
2023/03/24 00:50:43;;;;;;;4.00;2.00;;;;;;;18.33;59.44;99242.59;5048332;28;20958;-64
2023/03/24 00:53:09;;;;;;;5.27;2.20;;;;;;;18.33;59.18;99237.69;5054523;28;20584;-63
2023/03/24 00:55:36;;;;;;;6.33;2.40;;;;;;;18.33;59.31;99239.72;5053221;28;20509;-63
2023/03/24 00:58:02;;;;;;;6.87;2.33;;;;;;;18.33;59.27;99243.41;5046215;28;20606;-63
2023/03/24 01:00:27;;;;;;;5.07;1.87;;;;;;;18.34;59.29;99241.34;5049163;28;20422;-63
2023/03/24 01:02:54;;;;;;;4.70;2.10;;;;;;;18.34;58.90;99230.75;5049447;28;20613;-63
2023/03/24 01:05:26;;;;;;;4.80;2.10;;;;;;;18.34;59.09;99238.50;5073167;28;20732;-63
2023/03/24 01:07:52;;;;;;;3.97;1.93;;;;;;;18.33;59.22;99234.03;5057445;28;20434;-64
2023/03/24 01:10:20;;;;;;;4.43;1.77;;;;;;;18.34;59.31;99227.91;5017579;28;20931;-64
2023/03/24 01:12:46;;;;;;;5.00;2.20;;;;;;;18.34;59.11;99227.06;5051021;28;20553;-63
2023/03/24 01:15:16;;;;;;;3.90;2.23;;;;;;;18.34;59.26;99221.34;5068366;28;20410;-63
2023/03/24 01:17:41;;;;;;;5.00;2.23;;;;;;;18.33;59.45;99216.88;5051416;28;20184;-63
2023/03/24 01:20:10;;;;;;;4.60;2.57;;;;;;;18.31;59.29;99211.53;5031273;28;20977;-63
2023/03/24 01:22:36;;;;;;;6.60;2.13;;;;;;;18.35;59.26;99217.28;5049218;28;20286;-63
2023/03/24 01:25:03;;;;;;;3.20;1.83;;;;;;;18.35;58.90;99217.28;5057775;28;20437;-63
2023/03/24 01:27:29;;;;;;;3.60;1.80;;;;;;;18.34;59.11;99210.75;5068065;28;20425;-64
2023/03/24 01:30:01;;;;;;;4.20;2.10;;;;;;;18.33;59.09;99223.41;5069051;28;20405;-63
2023/03/24 01:32:28;;;;;;;5.50;2.47;;;;;;;18.34;59.10;99215.63;5034733;28;20957;-64
2023/03/24 01:34:53;;;;;;;7.37;2.53;;;;;;;18.34;59.19;99235.66;5049124;28;20418;-64
2023/03/24 01:37:19;;;;;;;7.03;2.60;;;;;;;18.34;59.52;99227.91;5059087;28;20444;-63
2023/03/24 01:39:44;;;;;;;5.50;2.50;;;;;;;18.33;59.38;99214.84;5068813;28;20172;-63
2023/03/24 01:42:20;;;;;;;4.67;2.10;;;;;;;18.34;59.31;99216.47;5068749;28;20179;-63
2023/03/24 01:44:47;;;;;;;4.07;1.70;;;;;;;18.33;59.44;99222.59;5048878;28;20194;-63
2023/03/24 01:47:13;;;;;;;5.63;2.30;;;;;;;18.32;59.19;99220.94;5030676;28;20699;-63
2023/03/24 01:49:58;;;;;;;4.60;2.20;;;;;;;18.33;58.98;99220.56;5030924;28;20426;-63
2023/03/24 01:52:25;;;;;;;5.00;2.30;;;;;;;18.33;59.40;99219.72;5031816;28;20204;-63
2023/03/24 01:54:53;;;;;;;4.70;1.83;;;;;;;18.33;59.23;99214.84;5048944;28;20422;-63
2023/03/24 01:57:28;;;;;;;3.80;1.97;;;;;;;18.31;59.58;99210.72;5042280;28;20500;-63
2023/03/24 01:59:55;;;;;;;4.07;2.03;;;;;;;18.33;58.91;99200.56;5014719;28;20821;-63
2023/03/24 02:02:21;;;;;;;3.30;1.73;;;;;;;18.33;59.01;99189.13;5033488;28;20803;-63
2023/03/24 02:04:59;;;;;;;4.90;2.13;;;;;;;18.31;59.36;99191.53;5061326;28;20829;-63
2023/03/24 02:07:35;;;;;;;2.73;1.47;;;;;;;18.33;59.00;99196.88;5070658;28;20472;-64
2023/03/24 02:10:03;;;;;;;4.30;2.30;;;;;;;18.33;59.19;99192.00;5074502;28;20465;-64
2023/03/24 02:12:29;;;;;;;2.67;1.57;;;;;;;18.33;59.24;99186.28;5041896;28;20465;-64
2023/03/24 02:14:54;;;;;;;3.07;1.63;;;;;;;18.33;59.35;99182.59;5054439;28;20414;-64
2023/03/24 02:17:41;;;;;;;5.50;2.70;;;;;;;18.33;59.06;99186.28;5071968;28;20397;-64
2023/03/24 02:20:40;;;;;;;2.63;1.80;;;;;;;18.33;59.51;99186.28;5070189;28;20184;-64
2023/03/24 02:23:34;;;;;;;3.67;1.97;;;;;;;18.31;59.44;99171.53;5009462;28;20456;-63
2023/03/24 02:26:11;;;;;;;3.10;1.77;;;;;;;18.33;59.22;99168.31;5036526;28;20467;-63
2023/03/24 02:28:44;;;;;;;4.30;1.80;;;;;;;18.33;59.00;99172.00;5052950;28;20416;-63
2023/03/24 02:31:47;;;;;;;3.70;2.10;;;;;;;18.33;59.31;99168.31;5036413;28;20425;-63
2023/03/24 02:34:39;;;;;;;2.43;1.40;;;;;;;18.32;59.15;99169.50;5050890;28;20467;-63
2023/03/24 02:37:26;;;;;;;3.57;1.87;;;;;;;18.33;59.22;99169.13;5050661;28;20440;-63
2023/03/24 02:40:07;;;;;;;5.03;2.10;;;;;;;18.31;59.04;99156.44;5051762;28;20469;-63
2023/03/24 02:42:51;;;;;;;4.07;1.97;;;;;;;18.31;59.33;99160.09;5066121;28;20440;-63
2023/03/24 02:46:00;;;;;;;4.10;2.13;;;;;;;18.33;59.02;99157.69;5071625;28;20417;-63
2023/03/24 02:48:40;;;;;;;3.90;1.90;;;;;;;18.35;59.28;99160.13;5000581;28;20463;-63
2023/03/24 02:51:42;;;;;;;3.77;1.53;;;;;;;18.34;59.25;99159.31;4976933;28;20480;-63
2023/03/24 02:54:14;;;;;;;4.33;1.70;;;;;;;18.33;59.08;99163.41;4992464;28;20518;-63
2023/03/24 02:56:53;;;;;;;3.50;1.67;;;;;;;18.33;59.20;99160.56;4992264;28;20475;-63
2023/03/24 02:59:40;;;;;;;4.20;2.00;;;;;;;18.32;59.20;99155.22;5001593;28;20455;-63
2023/03/24 03:02:08;;;;;;;2.90;1.50;;;;;;;18.33;59.08;99162.59;4972614;28;20976;-63
2023/03/24 03:04:37;;;;;;;4.90;2.00;;;;;;;18.33;59.29;99159.72;4976237;28;20461;-63
2023/03/24 03:07:08;;;;;;;3.70;2.07;;;;;;;18.33;59.30;99169.13;4993816;28;20467;-63
2023/03/24 03:09:36;;;;;;;3.50;1.83;;;;;;;18.33;59.48;99163.41;4993212;28;20519;-63
2023/03/24 03:12:01;;;;;;;4.50;2.00;;;;;;;18.34;59.15;99167.91;4965382;28;20491;-63
2023/03/24 03:14:40;;;;;;;4.37;1.90;;;;;;;18.34;58.67;99161.34;4972904;28;20915;-63
2023/03/24 03:17:10;;;;;;;3.03;1.50;;;;;;;18.34;58.92;99158.50;4981109;28;20335;-63
2023/03/24 03:19:41;;;;;;;4.80;1.80;;;;;;;18.33;59.38;99162.59;5033154;28;20425;-63
2023/03/24 03:22:10;;;;;;;4.07;1.90;;;;;;;18.32;59.08;99176.03;5060667;28;20434;-63
2023/03/24 03:24:40;;;;;;;4.33;2.00;;;;;;;18.33;59.36;99174.84;5023294;28;21010;-64
2023/03/24 03:27:07;;;;;;;3.60;1.90;;;;;;;18.33;59.38;99183.41;5032183;28;20429;-63
2023/03/24 03:29:36;;;;;;;4.53;1.83;;;;;;;18.32;58.98;99200.94;5032970;28;20471;-64
2023/03/24 03:32:08;;;;;;;6.93;2.07;;;;;;;18.34;59.18;99198.50;5033159;28;20515;-64
2023/03/24 03:34:53;;;;;;;4.57;2.10;;;;;;;18.33;59.20;99197.69;5070679;28;20421;-64
2023/03/24 03:37:29;;;;;;;2.80;1.60;;;;;;;18.34;58.94;99199.34;5053792;28;20394;-63
2023/03/24 03:40:00;;;;;;;3.67;1.80;;;;;;;18.34;59.19;99204.22;5048184;28;20430;-64
2023/03/24 03:42:25;;;;;;;3.20;1.77;;;;;;;18.34;58.97;99193.63;5019729;28;20508;-63
2023/03/24 03:44:51;;;;;;;4.30;1.80;;;;;;;18.34;58.98;99193.63;5040286;28;20818;-63
2023/03/24 03:47:17;;;;;;;3.33;1.90;;;;;;;18.33;59.00;99209.13;5067855;28;20230;-63
2023/03/24 03:49:43;;;;;;;5.10;2.10;;;;;;;18.34;59.14;99215.63;5070490;28;20259;-63
2023/03/24 03:52:08;;;;;;;3.13;1.60;;;;;;;18.32;59.02;99218.91;5055264;28;20557;-63
2023/03/24 03:54:34;;;;;;;4.50;2.10;;;;;;;18.34;59.17;99218.50;5050575;28;20159;-63
2023/03/24 03:56:59;;;;;;;3.33;1.80;;;;;;;18.34;59.21;99224.22;5065851;28;20191;-64
2023/03/24 03:59:32;;;;;;;6.30;2.57;;;;;;;18.36;59.18;99233.22;5070650;28;20582;-63
2023/03/24 04:02:11;;;;;;;3.33;1.87;;;;;;;18.33;59.03;99234.84;5053767;28;20256;-63
2023/03/24 04:04:52;;;;;;;3.40;1.73;;;;;;;18.33;59.26;99240.56;5028064;28;20892;-63
2023/03/24 04:07:27;;;;;;;4.17;1.80;;;;;;;18.34;59.18;99245.03;5058980;28;20454;-63
2023/03/24 04:10:20;;;;;;;3.30;1.53;;;;;;;18.34;59.11;99249.94;5050554;28;20402;-63
2023/03/24 04:13:03;;;;;;;4.47;2.00;;;;;;;18.34;58.87;99244.22;5034185;28;20496;-64
2023/03/24 04:15:33;;;;;;;2.80;1.33;;;;;;;18.34;59.25;99253.63;5036730;28;20515;-63
2023/03/24 04:18:03;;;;;;;3.87;2.33;;;;;;;18.34;59.18;99264.22;5069902;28;20800;-63
2023/03/24 04:21:07;;;;;;;4.20;1.90;;;;;;;18.35;59.00;99280.97;5034325;28;20465;-64
2023/03/24 04:23:57;;;;;;;5.47;1.87;;;;;;;18.34;59.11;99292.78;5057238;28;20785;-63
2023/03/24 04:26:41;;;;;;;3.70;1.80;;;;;;;18.34;59.11;99319.34;5047567;28;20448;-63
2023/03/24 04:29:28;;;;;;;3.50;1.70;;;;;;;18.33;59.21;99334.84;5068869;28;20393;-63
2023/03/24 04:32:13;;;;;;;3.20;1.70;;;;;;;18.35;59.30;99351.56;5060019;28;20470;-63
2023/03/24 04:34:44;;;;;;;3.90;1.80;;;;;;;18.35;59.02;99348.72;5068827;28;20408;-63
2023/03/24 04:37:15;;;;;;;2.70;1.63;;;;;;;18.33;59.12;99343.44;5018178;28;20516;-63
2023/03/24 04:39:42;;;;;;;3.90;1.73;;;;;;;18.34;58.95;99344.22;5051697;28;20426;-63
2023/03/24 04:42:10;;;;;;;3.10;1.70;;;;;;;18.34;59.26;99335.66;5049651;28;20411;-63
2023/03/24 04:44:36;;;;;;;3.47;1.90;;;;;;;18.32;59.29;99320.94;5037655;28;20849;-63
2023/03/24 04:47:01;;;;;;;4.37;1.83;;;;;;;18.33;59.18;99323.41;5069435;28;20511;-63
2023/03/24 04:49:27;;;;;;;2.43;1.60;;;;;;;18.34;58.97;99333.63;5049409;28;21204;-63
2023/03/24 04:51:53;;;;;;;5.87;1.93;;;;;;;18.34;59.15;99325.06;5033050;28;20650;-63
2023/03/24 04:54:19;;;;;;;3.90;1.30;;;;;;;18.35;59.09;99325.84;5066060;28;20318;-63
2023/03/24 04:56:49;;;;;;;3.70;1.87;;;;;;;18.35;58.85;99329.53;5051408;28;20198;-63
2023/03/24 04:59:15;;;;;;;3.03;1.77;;;;;;;18.33;59.16;99329.13;5061501;28;20529;-63
2023/03/24 05:01:48;;;;;;;3.83;1.60;;;;;;;18.34;59.04;99329.94;5049382;28;20763;-63
2023/03/24 05:04:13;;;;;;;4.00;1.97;;;;;;;18.34;59.31;99324.22;5033205;28;20179;-63
2023/03/24 05:06:39;;;;;;;4.63;1.83;;;;;;;18.33;59.29;99339.75;5068231;28;20448;-63
2023/03/24 05:09:04;;;;;;;4.60;1.63;;;;;;;18.33;59.39;99334.03;5069106;28;20166;-63
2023/03/24 05:11:30;;;;;;;5.10;1.87;;;;;;;18.33;58.98;99340.56;5069068;28;20214;-63
2023/03/24 05:13:55;;;;;;;2.73;1.80;;;;;;;18.34;59.00;99352.78;5067092;28;20178;-63
2023/03/24 05:16:21;;;;;;;2.73;1.30;;;;;;;18.34;59.13;99347.09;5036196;28;20534;-64
2023/03/24 05:18:46;;;;;;;2.70;1.57;;;;;;;18.34;59.27;99350.78;5068469;28;20506;-63
2023/03/24 05:21:12;;;;;;;5.73;1.70;;;;;;;18.34;59.02;99359.34;5053840;28;20665;-63
2023/03/24 05:23:37;;;;;;;2.40;1.30;;;;;;;18.33;58.85;99348.31;5048430;28;20733;-63
2023/03/24 05:26:03;;;;;;;3.67;2.10;;;;;;;18.32;59.21;99338.91;5061329;28;20202;-63
2023/03/24 05:28:28;;;;;;;3.80;1.97;;;;;;;18.33;58.96;99339.75;5068271;28;20253;-63
2023/03/24 05:30:54;;;;;;;3.23;1.50;;;;;;;18.33;58.86;99329.13;5069117;28;20919;-63
2023/03/24 05:33:19;;;;;;;3.10;1.70;;;;;;;18.34;59.06;99338.50;5036697;28;20242;-63
2023/03/24 05:35:45;;;;;;;3.53;1.60;;;;;;;18.33;59.16;99334.84;5069537;28;20190;-63
2023/03/24 05:38:10;;;;;;;2.87;1.67;;;;;;;18.33;59.24;99337.72;5062561;28;20233;-63
2023/03/24 05:40:36;;;;;;;3.50;1.83;;;;;;;18.34;59.20;99330.78;5033226;28;20184;-63
2023/03/24 05:43:01;;;;;;;3.63;1.90;;;;;;;18.33;59.17;99331.16;5050228;28;20186;-63
2023/03/24 05:45:28;;;;;;;3.07;1.47;;;;;;;18.34;59.27;99329.94;5053088;28;20685;-63
2023/03/24 05:47:53;;;;;;;3.67;1.63;;;;;;;18.34;59.14;99324.22;5054804;28;20366;-63
2023/03/24 05:50:19;;;;;;;4.37;1.93;;;;;;;18.31;59.18;99328.66;5052649;28;20394;-63
2023/03/24 05:52:45;;;;;;;2.60;1.57;;;;;;;18.31;59.33;99325.81;5052736;28;20195;-63
2023/03/24 05:55:10;;;;;;;3.30;1.90;;;;;;;18.34;58.98;99318.50;5051701;28;20160;-63
2023/03/24 05:57:35;;;;;;;2.70;1.50;;;;;;;18.33;59.24;99316.88;5067600;28;20187;-63
2023/03/24 06:00:06;;;;;;;3.93;1.50;;;;;;;18.33;59.40;99314.03;5071457;28;20164;-63
2023/03/24 06:02:32;;;;;;;3.10;1.50;;;;;;;18.33;59.18;99314.03;5068048;28;20183;-63
2023/03/24 06:04:57;;;;;;;2.77;1.70;;;;;;;18.31;58.96;99314.38;5079388;28;20427;-63
2023/03/24 06:07:25;;;;;;;3.97;1.40;;;;;;;18.33;59.23;99322.59;5072629;28;20254;-63
2023/03/24 06:09:51;;;;;;;3.90;1.80;;;;;;;18.34;59.29;99338.50;5034346;28;20171;-63
2023/03/24 06:12:17;;;;;;;3.63;1.80;;;;;;;18.34;59.28;99333.63;5034509;28;20449;-63
2023/03/24 06:14:42;;;;;;;3.73;1.80;;;;;;;18.33;58.93;99343.44;5034417;28;20757;-63
2023/03/24 06:17:08;;;;;;;3.60;2.00;;;;;;;18.34;59.06;99345.06;5055513;28;20183;-63
2023/03/24 06:19:37;;;;;;;4.57;1.93;;;;;;;18.34;59.11;99359.34;5052133;28;20679;-63
2023/03/24 06:22:02;;;;;;;4.33;1.83;;;;;;;18.33;59.06;99369.13;5034249;28;20171;-63
2023/03/24 06:24:28;;;;;;;2.90;1.60;;;;;;;18.34;59.08;99382.19;5051929;28;20796;-63
2023/03/24 06:27:00;;;;;;;2.60;1.60;;;;;;;18.34;59.43;99387.91;5068017;28;20274;-63
2023/03/24 06:29:27;;;;;;;4.27;1.80;;;;;;;18.34;59.36;99375.66;5071123;28;20169;-63
2023/03/24 06:31:53;;;;;;;2.47;1.40;;;;;;;18.34;59.22;99375.66;5040984;28;20465;-63
2023/03/24 06:34:18;;;;;;;3.67;1.50;;;;;;;18.34;59.06;99373.63;5051912;28;20411;-63
2023/03/24 06:36:44;;;;;;;2.43;1.50;;;;;;;18.34;59.23;99375.66;5054325;28;20189;-63
2023/03/24 06:39:09;;;;;;;3.03;1.67;;;;;;;18.35;59.07;99378.13;5055020;28;20565;-63
2023/03/24 06:41:35;;;;;;;2.90;1.50;;;;;;;18.35;58.96;99392.41;5071583;28;20171;-63
2023/03/24 06:44:00;;;;;;;4.10;1.83;;;;;;;18.34;59.27;99390.78;5071184;28;20175;-63
2023/03/24 06:46:26;;;;;;;3.80;1.50;;;;;;;18.33;59.11;99392.00;5064711;28;20223;-63
2023/03/24 06:48:51;;;;;;;3.57;1.73;;;;;;;18.33;59.14;99392.00;5070387;28;20171;-63
2023/03/24 06:51:18;;;;;;;2.23;1.33;;;;;;;18.33;59.50;99396.88;5070891;28;20175;-63
2023/03/24 06:53:44;;;;;;;2.37;1.13;;;;;;;18.34;59.38;99401.38;5053044;28;20212;-63
2023/03/24 06:56:15;;;;;;;2.90;1.40;;;;;;;18.35;59.05;99400.97;5067759;28;20425;-63
2023/03/24 06:58:41;;;;;;;4.13;1.40;;;;;;;18.35;59.29;99423.00;5071010;28;20803;-63
2023/03/24 07:01:06;;;;;;;2.80;1.67;;;;;;;18.34;59.21;99425.06;5071210;28;20543;-63
2023/03/24 07:03:32;;;;;;;3.00;1.33;;;;;;;18.35;59.19;99440.97;5071039;28;20414;-63
2023/03/24 07:05:58;;;;;;;2.57;1.67;;;;;;;18.34;59.11;99415.66;5066321;28;20619;-63
2023/03/24 07:08:23;;;;;;;4.83;1.77;;;;;;;18.34;59.10;99405.06;5071422;28;20189;-63
2023/03/24 07:10:49;;;;;;;2.70;1.43;;;;;;;18.34;59.18;99425.06;5059311;28;20237;-63
2023/03/24 07:13:14;;;;;;;3.93;1.93;;;;;;;18.33;59.20;99426.28;5032920;28;20191;-63
2023/03/24 07:15:40;;;;;;;3.80;1.40;;;;;;;18.34;59.33;99427.91;5053485;28;20631;-63
2023/03/24 07:18:05;;;;;;;4.13;1.67;;;;;;;18.35;59.24;99446.69;5033326;28;20172;-63
2023/03/24 07:20:31;;;;;;;2.73;1.50;;;;;;;18.35;58.98;99458.13;5050922;28;20168;-63
2023/03/24 07:22:57;;;;;;;3.23;1.70;;;;;;;18.35;59.07;99458.13;5059960;28;20228;-63
2023/03/24 07:25:22;;;;;;;3.03;1.70;;;;;;;18.34;59.20;99442.22;5036381;28;20202;-63
2023/03/24 07:27:48;;;;;;;2.47;1.50;;;;;;;18.34;59.30;99435.66;5071113;28;20170;-63
2023/03/24 07:30:14;;;;;;;4.30;1.77;;;;;;;18.35;59.36;99428.72;5070463;28;20175;-64
2023/03/24 07:32:41;;;;;;;2.83;1.50;;;;;;;18.33;59.46;99432.00;5055523;28;20210;-64
2023/03/24 07:35:09;;;;;;;2.97;1.40;;;;;;;18.33;59.40;99414.84;5051207;28;20985;-64
2023/03/24 07:37:35;;;;;;;5.37;1.97;;;;;;;18.34;59.25;99416.50;5043911;28;20533;-63
2023/03/24 07:40:00;;;;;;;4.60;1.97;;;;;;;18.36;59.48;99414.03;5070450;28;20417;-64
2023/03/24 07:42:26;;;;;;;6.67;1.80;;;;;;;18.34;59.36;99405.06;5068730;28;20277;-64
2023/03/24 07:44:51;;;;;;;3.77;1.80;;;;;;;18.34;59.06;99405.06;5069435;28;20515;-64
2023/03/24 07:47:17;;;;;;;3.03;1.50;;;;;;;18.34;59.59;99382.19;5052421;28;20719;-64
2023/03/24 07:49:42;;;;;;;5.87;1.93;;;;;;;18.33;59.46;99386.28;5053152;28;20196;-64
2023/03/24 07:52:08;;;;;;;4.63;1.73;;;;;;;18.34;59.23;99382.19;5053384;28;20995;-64
2023/03/24 07:54:33;;;;;;;6.40;2.00;;;;;;;18.34;59.13;99378.50;5033301;28;20183;-64
2023/03/24 07:56:59;;;;;;;2.70;1.47;;;;;;;18.35;59.31;99372.41;5062841;28;20657;-64
2023/03/24 07:59:25;;;;;;;10.57;2.17;;;;;;;18.33;59.47;99369.13;5071910;28;20171;-64
2023/03/24 08:01:51;;;;;;;2.90;1.60;;;;;;;18.34;59.51;99387.09;5071553;28;20416;-64
2023/03/24 08:04:17;;;;;;;3.57;1.87;;;;;;;18.35;59.24;99392.41;5040867;28;20913;-64
2023/03/24 08:06:42;;;;;;;4.63;1.97;;;;;;;18.35;59.20;99394.44;5089825;28;20205;-64
2023/03/24 08:09:08;;;;;;;3.87;1.43;;;;;;;18.35;59.27;99386.69;5058979;28;20188;-64
2023/03/24 08:11:34;;;;;;;4.60;2.17;;;;;;;18.35;59.38;99392.41;5053621;28;20195;-64
2023/03/24 08:14:00;;;;;;;2.80;1.40;;;;;;;18.36;59.18;99384.66;5035666;28;20191;-64
2023/03/24 08:16:25;;;;;;;3.70;1.60;;;;;;;18.35;59.31;99392.41;5053526;28;20782;-64
2023/03/24 08:18:51;;;;;;;3.10;1.47;;;;;;;18.34;59.45;99410.78;5056340;28;20195;-64
2023/03/24 08:21:17;;;;;;;5.30;1.57;;;;;;;18.34;59.21;99410.78;5056379;28;20217;-64
2023/03/24 08:23:42;;;;;;;3.17;1.80;;;;;;;18.34;59.45;99410.78;5067445;28;20187;-63
2023/03/24 08:26:09;;;;;;;3.57;1.70;;;;;;;18.34;59.24;99409.94;5059203;28;20183;-63
2023/03/24 08:28:36;;;;;;;4.77;2.27;;;;;;;18.34;59.38;99405.06;5071111;28;20171;-63
2023/03/24 08:31:02;;;;;;;4.50;1.70;;;;;;;18.34;59.40;99410.78;5057392;28;20465;-63
2023/03/24 08:33:27;;;;;;;3.77;1.37;;;;;;;18.36;59.38;99410.38;5051177;28;20483;-64
2023/03/24 08:35:56;;;;;;;2.70;1.53;;;;;;;18.36;59.24;99405.47;5051229;28;20423;-64
2023/03/24 08:38:22;;;;;;;4.43;1.60;;;;;;;18.37;59.14;99412.00;5051942;28;20210;-64
2023/03/24 08:40:47;;;;;;;4.60;1.70;;;;;;;18.36;59.40;99416.09;5049967;28;20509;-64
2023/03/24 08:43:14;;;;;;;3.87;1.70;;;;;;;18.34;59.41;99413.63;5049831;28;20168;-64
2023/03/24 08:45:39;;;;;;;4.60;1.80;;;;;;;18.37;59.17;99407.09;5065276;28;20262;-64
2023/03/24 08:48:05;;;;;;;5.30;2.50;;;;;;;18.36;59.06;99407.53;5051791;28;20476;-64
2023/03/24 08:50:36;;;;;;;9.00;2.17;;;;;;;18.37;59.05;99415.66;5051892;28;20501;-64
2023/03/24 08:53:02;;;;;;;10.57;2.20;;;;;;;18.35;59.31;99418.13;5055586;28;20475;-65
2023/03/24 08:55:28;;;;;;;7.70;2.90;;;;;;;18.33;59.71;99414.84;5069533;28;20550;-64
2023/03/24 08:57:53;;;;;;;11.77;4.03;;;;;;;18.35;59.88;99417.28;5065981;28;20434;-64
2023/03/24 09:00:19;;;;;;;13.50;2.87;;;;;;;18.39;60.50;99406.69;5065957;28;21046;-64
2023/03/24 09:02:46;;;;;;;7.00;2.80;;;;;;;18.40;60.55;99412.03;5069258;28;20171;-64
2023/03/24 09:05:12;;;;;;;20.80;3.43;;;;;;;18.45;60.92;99430.81;5044581;28;20420;-65
2023/03/24 09:07:37;;;;;;;15.43;3.77;;;;;;;18.45;61.14;99419.38;5072819;28;20417;-65
2023/03/24 09:10:05;;;;;;;22.90;4.43;;;;;;;18.46;60.98;99423.91;5062293;28;20635;-65
2023/03/24 09:12:30;;;;;;;17.43;4.70;;;;;;;18.44;61.02;99410.00;5032296;28;20546;-63
2023/03/24 09:14:56;;;;;;;12.40;4.37;;;;;;;18.45;61.28;99422.22;5050249;28;20414;-64
2023/03/24 09:17:21;;;;;;;18.77;3.70;;;;;;;18.46;61.64;99424.69;5051418;28;20180;-64
2023/03/24 09:19:47;;;;;;;19.73;5.03;;;;;;;18.44;61.65;99414.88;5061944;28;20191;-64
2023/03/24 09:22:12;;;;;;;23.53;4.70;;;;;;;18.41;61.36;99398.56;5053199;28;20183;-64
2023/03/24 09:24:38;;;;;;;18.77;4.17;;;;;;;18.40;61.08;99394.88;5055898;28;20209;-64
2023/03/24 09:27:03;;;;;;;15.63;3.17;;;;;;;18.43;61.42;99394.09;5072862;28;20182;-63
2023/03/24 09:29:29;;;;;;;26.30;3.87;;;;;;;18.41;61.84;99405.06;5055203;28;20175;-63
2023/03/24 09:31:55;;;;;;;17.90;3.50;;;;;;;18.45;62.19;99405.09;5058102;28;20219;-63
2023/03/24 09:34:21;;;;;;;23.00;4.10;;;;;;;18.48;62.78;99416.56;5049764;28;20194;-63
2023/03/24 09:36:47;;;;;;;19.17;3.90;;;;;;;18.50;63.08;99416.97;5067990;28;21004;-63
2023/03/24 09:39:12;;;;;;;10.27;3.07;;;;;;;18.47;63.09;99414.91;5071459;28;20561;-63
2023/03/24 09:41:38;;;;;;;13.43;4.17;;;;;;;18.47;62.45;99414.91;5054228;28;20191;-63
2023/03/24 09:44:16;;;;;;;18.20;4.27;;;;;;;18.47;61.75;99414.91;5034339;28;20198;-64
2023/03/24 09:47:16;;;;;;;19.17;3.93;;;;;;;18.49;62.37;99418.19;5035445;28;20289;-63
2023/03/24 09:49:41;;;;;;;22.33;3.80;;;;;;;18.48;61.94;99416.56;4987857;28;20486;-63
2023/03/24 09:52:09;;;;;;;16.70;4.17;;;;;;;18.47;61.93;99414.09;5031114;28;20455;-63
2023/03/24 09:54:46;;;;;;;19.23;3.70;;;;;;;18.46;61.78;99416.13;5032153;28;20183;-63
2023/03/24 09:57:17;;;;;;;9.10;3.60;;;;;;;18.46;61.51;99426.75;5051686;28;20516;-63
2023/03/24 09:59:43;;;;;;;16.60;3.17;;;;;;;18.46;61.61;99429.63;5053106;28;20505;-63
2023/03/24 10:02:12;;;;;;;12.23;3.20;;;;;;;18.42;61.54;99435.28;5053332;28;20402;-63
2023/03/24 10:04:38;;;;;;;17.07;3.50;;;;;;;18.43;61.21;99433.25;5033881;28;20191;-63
2023/03/24 10:07:14;;;;;;;17.53;3.90;;;;;;;18.42;61.30;99434.50;5051315;28;20788;-63
2023/03/24 10:09:40;;;;;;;11.60;2.60;;;;;;;18.44;61.29;99444.31;5048292;28;20953;-63
2023/03/24 10:12:37;;;;;;;15.93;4.00;;;;;;;18.44;61.13;99444.31;5052913;28;20470;-63
2023/03/24 10:15:13;;;;;;;7.83;3.67;;;;;;;18.43;61.22;99442.66;5052462;28;20190;-63
2023/03/24 10:17:41;;;;;;;9.87;3.27;;;;;;;18.43;61.00;99454.09;5048945;28;20429;-63
2023/03/24 10:20:14;;;;;;;17.17;3.20;;;;;;;18.44;60.97;99460.63;5051642;28;20425;-63
2023/03/24 10:23:16;;;;;;;14.47;2.97;;;;;;;18.43;61.18;99456.97;5048521;28;20493;-63
2023/03/24 10:25:43;;;;;;;15.57;4.30;;;;;;;18.43;60.83;99448.38;5051697;28;20422;-63
2023/03/24 10:28:18;;;;;;;26.50;3.97;;;;;;;18.42;60.90;99455.28;5051378;28;20901;-63
2023/03/24 10:30:44;;;;;;;14.83;3.50;;;;;;;18.41;60.58;99450.81;5048353;28;20437;-63
2023/03/24 10:33:10;;;;;;;19.83;3.43;;;;;;;18.42;60.64;99472.44;5031935;28;20458;-63
2023/03/24 10:35:42;;;;;;;8.87;3.80;;;;;;;18.43;60.91;99487.56;5032185;28;20531;-63
2023/03/24 10:38:15;;;;;;;7.10;3.10;;;;;;;18.42;61.17;99486.72;5018584;28;20455;-63
2023/03/24 10:40:40;;;;;;;11.90;2.90;;;;;;;18.42;60.93;99491.66;5014420;28;20425;-63
2023/03/24 10:43:06;;;;;;;18.13;2.87;;;;;;;18.43;60.91;99494.09;5033005;28;20431;-63
2023/03/24 10:45:32;;;;;;;13.83;3.67;;;;;;;18.44;60.92;99492.06;5031858;28;20177;-63
2023/03/24 10:48:01;;;;;;;15.33;3.57;;;;;;;18.43;60.84;99510.44;5031613;28;20254;-63
2023/03/24 10:50:28;;;;;;;12.00;3.37;;;;;;;18.48;61.38;99508.03;5035270;28;20648;-64
2023/03/24 10:52:54;;;;;;;9.83;3.03;;;;;;;18.54;61.71;99512.13;5050942;28;20469;-63
2023/03/24 10:55:28;;;;;;;14.07;3.43;;;;;;;18.60;61.66;99516.25;5051461;28;20480;-64
2023/03/24 10:57:54;;;;;;;15.77;3.10;;;;;;;18.56;61.29;99515.41;5047981;28;20996;-64
2023/03/24 11:00:28;;;;;;;7.60;3.63;;;;;;;18.52;61.18;99516.59;5015487;28;20442;-64
2023/03/24 11:02:59;;;;;;;11.67;3.13;;;;;;;18.53;61.63;99504.78;5024119;28;20435;-63
2023/03/24 11:05:29;;;;;;;16.77;3.30;;;;;;;18.50;61.96;99502.72;5059269;28;20916;-63
2023/03/24 11:07:58;;;;;;;19.67;4.10;;;;;;;18.54;63.02;99497.84;5079078;28;20433;-63
2023/03/24 11:10:24;;;;;;;28.03;3.60;;;;;;;18.45;62.33;99500.22;5038573;28;20443;-63
2023/03/24 11:12:49;;;;;;;22.43;3.70;;;;;;;18.38;63.67;99502.22;5050026;28;20458;-63
2023/03/24 11:15:22;;;;;;;15.73;3.67;;;;;;;18.29;64.39;99498.88;5053755;28;20480;-63
2023/03/24 11:17:55;;;;;;;18.30;2.83;;;;;;;18.23;64.67;99492.72;5055214;28;20214;-63
2023/03/24 11:21:02;;;;;;;9.40;2.90;;;;;;;18.24;64.21;99491.50;5057266;28;20438;-63
2023/03/24 11:23:38;;;;;;;9.47;2.53;;;;;;;18.18;64.65;99500.84;5027569;28;20438;-63
2023/03/24 11:26:15;;;;;;;11.50;3.00;;;;;;;18.20;64.50;99484.94;5044878;28;20433;-63
2023/03/24 11:28:55;;;;;;;4.90;2.57;;;;;;;18.28;64.64;99492.34;5049904;28;20425;-63
2023/03/24 11:31:40;;;;;;;7.00;2.60;;;;;;;18.44;64.90;99495.75;5046977;28;20933;-64
2023/03/24 11:34:07;;;;;;;8.73;2.37;;;;;;;18.45;64.83;99485.94;5048475;28;20438;-64
2023/03/24 11:36:36;;;;;;;9.57;2.40;;;;;;;18.44;63.97;99478.59;5050162;28;20399;-64
2023/03/24 11:39:09;;;;;;;8.27;2.93;;;;;;;18.47;63.71;99485.56;5044674;28;20932;-65
2023/03/24 11:41:36;;;;;;;9.37;2.77;;;;;;;18.45;63.38;99485.94;5037648;28;20462;-65
2023/03/24 11:44:37;;;;;;;17.67;2.80;;;;;;;18.43;63.16;99481.84;5013142;28;20506;-65